Startpagina
METAR-TAF:

METAR-TAF

Vliegvelden :

Katima Mulilo, Namibië

breedte: 17-38-04S, lengte: 024-10-36E, hoogte: 985 m

Actueel weer

Dit bericht is 42 minuten geleden gemaakt, om 02:00 UTC
Wind 2 kt uit het oostzuidoosten
Temperatuur 21°C
Vochtigheid 100%
Druk 1016 hPa

METAR: FYKM 290200Z AUTO 12002KT //// // ////// 21/21 Q1016

Tijdstip: 04:42 (02:42 UTC)

Verwachting

Dit bericht is 42 minuten geleden gemaakt, om 02:00 UTC
Verwachting geldig van 29 om 03 UTC tot 29 om 12 UTC
Wind kt uit het noorden
Zicht 10 km of meer
Verspreide wolken op 2000 ft
Wijzigt naar
van 29 om 10 UTC tot 29 om 12 UTC
Wind 6 kt uit het noordoosten
Verspreide wolken op 5000 ft

TAF: FYKM 290200Z 2903/2912 00000KT 9999 SCT020 BECMG 2910/2912 05006KT SCT050

Waarnemingen en weersverwachtingen van meer dan 4000 vliegvelden (METAR en TAF).

De beschikbare stations zijn de gele en rode punten op de kaart.

Ga met uw muis naar het station om de naam te zien.

Klik dan om waarnemingen en weersverwachtingen te zien.

kaart wijzigen: klik op de groene knoppen met een zwart kruis om in te zoomen, op de groene knop met een streepje om uit te zoomen of op de groene pijlen voor aangrenzende kaarten.


METAR-TAF: